Time;durP1;ratioP1;P1;durP2;ratioP2;P2;SDS_P1;SDS_P2;PMS_P1;PMS_P2;Temp;Humidity;BMP_temperature;BMP_pressure;BME280_temperature;BME280_humidity;BME280_pressure;Samples;Min_cycle;Max_cycle;Signal;HPM_P1;HPM_P2
2022/04/25 00:01:26;;;;;;;;;;;;;;;20.12;72.93;96184.33;582202;243;65535;-74
2022/04/25 00:03:54;;;;;;;;;;;;;;;20.14;72.95;96176.05;582163;243;67100;-74
2022/04/25 00:06:21;;;;;;;;;;;;;;;20.12;73.09;96180.87;582204;243;67228;-74
2022/04/25 00:08:49;;;;;;;;;;;;;;;20.12;72.97;96173.66;582223;243;65410;-74
2022/04/25 00:11:16;;;;;;;;;;;;;;;20.12;73.22;96176.32;582269;243;67100;-74
2022/04/25 00:13:43;;;;;;;;;;;;;;;20.11;73.21;96172.08;582103;243;66977;-74
2022/04/25 00:16:11;;;;;;;;;;;;;;;20.12;72.94;96172.86;582229;243;65391;-73
2022/04/25 00:18:38;;;;;;;;;;;;;;;20.11;72.97;96177.41;582133;243;67356;-74
2022/04/25 00:21:06;;;;;;;;;;;;;;;20.12;72.79;96170.98;582218;243;67790;-74
2022/04/25 00:23:34;;;;;;;;;;;;;;;20.12;73.29;96168.31;582215;243;65418;-74
2022/04/25 00:26:01;;;;;;;;;;;;;;;20.11;73.08;96168.62;582222;243;66798;-74
2022/04/25 00:28:29;;;;;;;;;;;;;;;20.12;72.81;96162.98;582149;243;66904;-73
2022/04/25 00:30:56;;;;;;;;;;;;;;;20.12;72.47;96162.20;582159;243;65379;-74
2022/04/25 00:33:24;;;;;;;;;;;;;;;20.11;72.77;96161.41;582203;243;67281;-74
2022/04/25 00:35:51;;;;;;;;;;;;;;;20.11;72.97;96152.62;582229;243;66775;-74
2022/04/25 00:38:19;;;;;;;;;;;;;;;20.11;72.87;96152.62;582208;243;65470;-74
2022/04/25 00:40:47;;;;;;;;;;;;;;;20.10;73.07;96157.13;582153;243;65028;-73
2022/04/25 00:43:14;;;;;;;;;;;;;;;20.09;73.11;96155.55;582209;243;64824;-73
2022/04/25 00:45:42;;;;;;;;;;;;;;;20.10;73.09;96156.34;582152;243;63065;-73
2022/04/25 00:48:09;;;;;;;;;;;;;;;20.10;72.98;96149.12;582294;243;64864;-74
2022/04/25 00:50:38;;;;;;;;;;;;;;;20.10;73.09;96159.80;582172;243;64910;-74
2022/04/25 00:53:09;;;;;;;;;;;;;;;20.09;72.98;96155.55;582186;243;65554;-74
2022/04/25 00:55:36;;;;;;;;;;;;;;;20.08;72.96;96153.98;582139;243;64943;-73
2022/04/25 00:58:04;;;;;;;;;;;;;;;20.09;73.25;96155.55;582180;243;64703;-74
2022/04/25 01:00:32;;;;;;;;;;;;;;;20.08;73.03;96156.64;582243;243;63064;-74
2022/04/25 01:02:59;;;;;;;;;;;;;;;20.09;72.96;96144.88;582224;243;68762;-73
2022/04/25 01:05:27;;;;;;;;;;;;;;;20.08;73.16;96143.31;582194;243;65009;-74
2022/04/25 01:07:54;;;;;;;;;;;;;;;20.08;73.14;96140.64;582147;243;63041;-74
2022/04/25 01:10:22;;;;;;;;;;;;;;;20.09;73.18;96141.43;582207;243;65321;-74
2022/04/25 01:12:49;;;;;;;;;;;;;;;20.08;73.26;96140.64;582175;243;64647;-74
2022/04/25 01:15:16;;;;;;;;;;;;;;;20.08;73.08;96143.31;582254;243;62935;-74
2022/04/25 01:17:44;;;;;;;;;;;;;;;20.08;72.99;96140.64;582186;243;64946;-74
2022/04/25 01:20:11;;;;;;;;;;;;;;;20.08;73.17;96151.31;582148;243;65113;-74
2022/04/25 01:22:43;;;;;;;;;;;;;;;20.08;73.12;96147.83;582163;243;63139;-74
2022/04/25 01:27:56;;;;;;;;;;;;;;;20.07;73.04;96136.37;582220;243;66996;-73
2022/04/25 01:30:24;;;;;;;;;;;;;;;20.07;73.15;96136.37;582222;243;65258;-73
2022/04/25 01:32:52;;;;;;;;;;;;;;;20.06;73.06;96137.45;581991;243;67319;-73
2022/04/25 01:35:20;;;;;;;;;;;;;;;20.07;73.17;96135.58;582064;243;64847;-73
2022/04/25 01:37:47;;;;;;;;;;;;;;;20.06;73.26;96134.00;582094;243;65395;-73
2022/04/25 01:40:15;;;;;;;;;;;;;;;20.06;73.09;96142.01;582080;243;66892;-73
2022/04/25 01:42:43;;;;;;;;;;;;;;;20.06;73.45;96140.12;582032;243;64865;-73
2022/04/25 01:45:11;;;;;;;;;;;;;;;20.06;73.34;96136.67;581998;243;65399;-73
2022/04/25 01:47:40;;;;;;;;;;;;;;;20.06;73.39;96128.67;582008;243;67308;-73
2022/04/25 01:50:08;;;;;;;;;;;;;;;20.05;73.21;96130.55;582005;243;64764;-73
2022/04/25 01:52:36;;;;;;;;;;;;;;;20.05;73.21;96124.39;582074;243;65181;-73
2022/04/25 01:55:05;;;;;;;;;;;;;;;20.05;73.14;96130.55;582035;243;67076;-73
2022/04/25 01:57:33;;;;;;;;;;;;;;;20.05;73.18;96127.88;582007;243;65044;-73
2022/04/25 02:00:00;;;;;;;;;;;;;;;20.05;73.15;96130.55;582005;243;65272;-73
2022/04/25 02:02:28;;;;;;;;;;;;;;;20.05;73.37;96124.39;582032;243;66944;-73
2022/04/25 02:04:55;;;;;;;;;;;;;;;20.05;73.22;96129.73;582073;243;66922;-73
2022/04/25 02:07:23;;;;;;;;;;;;;;;20.04;72.87;96120.16;582027;243;65183;-73
2022/04/25 02:09:50;;;;;;;;;;;;;;;20.05;73.21;96129.73;582016;243;67077;-73
2022/04/25 02:12:18;;;;;;;;;;;;;;;20.05;73.24;96127.06;582017;243;66776;-73
2022/04/25 02:14:46;;;;;;;;;;;;;;;20.04;73.20;96128.94;582011;243;65261;-73
2022/04/25 02:17:16;;;;;;;;;;;;;;;20.04;73.18;96120.94;582070;243;64869;-73
2022/04/25 02:19:44;;;;;;;;;;;;;;;20.03;73.01;96122.03;582037;243;64998;-73
2022/04/25 02:22:13;;;;;;;;;;;;;;;20.03;73.21;96127.37;582046;243;65443;-73
2022/04/25 02:24:41;;;;;;;;;;;;;;;20.03;73.27;96124.70;582055;243;64885;-73
2022/04/25 02:27:09;;;;;;;;;;;;;;;20.03;72.95;96129.25;582027;243;66267;-72
2022/04/25 02:29:41;;;;;;;;;;;;;;;20.03;73.18;96127.37;582058;243;65569;-72
2022/04/25 02:32:13;;;;;;;;;;;;;;;20.03;73.36;96127.37;582076;243;66769;-72
2022/04/25 02:34:38;;;;;;;;;;;;;;;20.03;73.42;96129.25;581867;243;66975;-72
2022/04/25 02:37:06;;;;;;;;;;;;;;;20.02;73.42;96131.09;582205;243;65472;-72
2022/04/25 02:39:34;;;;;;;;;;;;;;;20.01;73.26;96142.85;582170;243;66871;-72
2022/04/25 02:42:01;;;;;;;;;;;;;;;20.02;73.55;96138.30;582234;243;66690;-72
2022/04/25 02:44:29;;;;;;;;;;;;;;;20.02;73.26;96147.09;582211;243;65170;-72
2022/04/25 02:46:56;;;;;;;;;;;;;;;20.02;73.42;96147.09;582231;243;66793;-72
2022/04/25 02:49:24;;;;;;;;;;;;;;;20.01;73.48;96134.06;582195;243;67201;-72
2022/04/25 02:51:51;;;;;;;;;;;;;;;20.02;73.35;96147.09;582204;243;65402;-72
2022/04/25 02:54:19;;;;;;;;;;;;;;;20.00;73.32;96143.94;582186;243;66740;-72
2022/04/25 02:56:47;;;;;;;;;;;;;;;20.00;73.28;96141.27;582251;243;67053;-72
2022/04/25 02:59:15;;;;;;;;;;;;;;;20.01;73.31;96144.73;582169;243;65445;-73
2022/04/25 03:01:42;;;;;;;;;;;;;;;20.01;73.23;96142.06;582219;243;67371;-72
2022/04/25 03:04:11;;;;;;;;;;;;;;;20.01;73.40;96144.73;582202;243;66942;-72
2022/04/25 03:06:38;;;;;;;;;;;;;;;20.00;73.33;96143.13;582166;243;63061;-72
2022/04/25 03:09:06;;;;;;;;;;;;;;;19.99;73.43;96137.00;582252;243;64883;-72
2022/04/25 03:11:35;;;;;;;;;;;;;;;20.00;73.31;96138.61;582207;243;67238;-72
2022/04/25 03:14:03;;;;;;;;;;;;;;;19.99;73.21;96141.55;582237;243;63018;-72
2022/04/25 03:16:30;;;;;;;;;;;;;;;19.99;73.14;96142.34;582165;243;64910;-72
2022/04/25 03:18:58;;;;;;;;;;;;;;;19.99;73.08;96139.67;582236;243;64726;-72
2022/04/25 03:21:26;;;;;;;;;;;;;;;20.00;73.47;96135.94;582150;243;65297;-72
2022/04/25 03:23:53;;;;;;;;;;;;;;;19.98;73.39;96130.09;582227;243;67303;-72
2022/04/25 03:26:21;;;;;;;;;;;;;;;19.98;73.27;96130.09;582214;243;64688;-72
2022/04/25 03:28:49;;;;;;;;;;;;;;;19.99;73.36;96137.00;582192;243;63037;-72
2022/04/25 03:31:16;;;;;;;;;;;;;;;19.99;73.42;96138.88;582217;243;67061;-72
2022/04/25 03:33:43;;;;;;;;;;;;;;;19.98;73.39;96130.09;582042;243;66842;-72
2022/04/25 03:36:11;;;;;;;;;;;;;;;19.98;73.46;96121.30;582089;243;65499;-72
2022/04/25 03:38:41;;;;;;;;;;;;;;;19.97;73.21;96117.84;582037;243;67125;-71
2022/04/25 03:41:08;;;;;;;;;;;;;;;19.97;72.96;96117.84;582080;242;66806;-73
2022/04/25 03:43:35;;;;;;;;;;;;;;;19.98;73.17;96118.63;582009;243;65480;-73
2022/04/25 03:46:02;;;;;;;;;;;;;;;19.96;73.15;96111.70;582058;243;67152;-73
2022/04/25 03:48:30;;;;;;;;;;;;;;;19.98;73.27;96115.97;582005;243;67259;-73
2022/04/25 03:50:58;;;;;;;;;;;;;;;19.98;73.35;96113.30;582069;243;66311;-73
2022/04/25 03:53:25;;;;;;;;;;;;;;;19.97;73.26;96109.84;582119;243;64870;-72
2022/04/25 03:58:38;;;;;;;;;;;;;;;19.96;73.24;96105.58;582078;243;65321;-73
2022/04/25 04:01:05;;;;;;;;;;;;;;;19.96;73.26;96102.91;582120;243;64961;-73
2022/04/25 04:03:34;;;;;;;;;;;;;;;19.95;73.47;96101.33;582127;243;64813;-73
2022/04/25 04:06:02;;;;;;;;;;;;;;;19.95;73.38;96106.66;582145;243;65554;-73
2022/04/25 04:08:30;;;;;;;;;;;;;;;19.94;73.49;96097.87;582073;243;64590;-73
2022/04/25 04:10:57;;;;;;;;;;;;;;;19.94;73.46;96100.55;582108;243;64818;-73
2022/04/25 04:13:25;;;;;;;;;;;;;;;19.95;73.58;96098.66;582059;243;63312;-73
2022/04/25 04:15:53;;;;;;;;;;;;;;;19.93;73.54;96098.94;582073;243;65101;-73
2022/04/25 04:18:21;;;;;;;;;;;;;;;19.94;73.36;96097.87;582007;243;67427;-73
2022/04/25 04:20:48;;;;;;;;;;;;;;;19.94;73.60;96089.88;582005;243;65019;-73
2022/04/25 04:23:16;;;;;;;;;;;;;;;19.93;73.56;96082.94;582020;243;68083;-73
2022/04/25 04:25:43;;;;;;;;;;;;;;;19.93;73.52;96072.27;581966;243;66947;-73
2022/04/25 04:28:11;;;;;;;;;;;;;;;19.94;73.51;96043.73;582093;243;65416;-73
2022/04/25 04:30:39;;;;;;;;;;;;;;;19.93;73.46;96034.16;581980;243;64336;-73
2022/04/25 04:33:07;;;;;;;;;;;;;;;19.93;73.50;96034.16;582034;243;64841;-73
2022/04/25 04:38:20;;;;;;;;;;;;;;;19.93;73.51;96055.48;582155;243;64997;-73
2022/04/25 04:40:47;;;;;;;;;;;;;;;19.93;73.34;96063.48;582153;243;64670;-73
2022/04/25 04:43:15;;;;;;;;;;;;;;;19.93;73.43;96071.48;582246;243;62884;-73
2022/04/25 04:45:44;;;;;;;;;;;;;;;19.93;73.50;96076.81;582170;243;64872;-73
2022/04/25 04:48:12;;;;;;;;;;;;;;;19.93;73.48;96084.81;582002;243;67109;-72
2022/04/25 04:50:39;;;;;;;;;;;;;;;19.92;73.42;96100.03;582183;243;65172;-72
2022/04/25 04:53:07;;;;;;;;;;;;;;;19.92;73.27;96100.03;582180;243;64866;-72
2022/04/25 04:55:36;;;;;;;;;;;;;;;19.92;73.36;96112.57;582258;243;66701;-72
2022/04/25 04:58:03;;;;;;;;;;;;;;;19.92;73.34;96107.23;582176;243;63144;-72
2022/04/25 05:00:31;;;;;;;;;;;;;;;19.92;73.52;96113.36;582193;243;64823;-72
2022/04/25 05:02:58;;;;;;;;;;;;;;;19.91;73.53;96119.75;582147;243;65127;-72
2022/04/25 05:05:27;;;;;;;;;;;;;;;19.92;73.58;96125.91;582168;243;62998;-72
2022/04/25 05:07:54;;;;;;;;;;;;;;;19.91;73.58;96122.42;582118;243;67618;-72
2022/04/25 05:10:22;;;;;;;;;;;;;;;19.90;73.56;96112.84;582233;243;66949;-72
2022/04/25 05:12:50;;;;;;;;;;;;;;;19.91;73.58;96118.97;582142;243;62943;-72
2022/04/25 05:15:19;;;;;;;;;;;;;;;19.91;73.66;96129.63;582185;243;67265;-72
2022/04/25 05:17:50;;;;;;;;;;;;;;;19.90;73.67;96138.72;582183;243;66937;-73
2022/04/25 05:20:18;;;;;;;;;;;;;;;19.91;73.60;96145.63;582215;243;63237;-72
2022/04/25 05:22:47;;;;;;;;;;;;;;;19.90;73.56;96160.84;582246;243;64523;-72
2022/04/25 05:25:15;;;;;;;;;;;;;;;19.90;73.69;96179.51;582224;243;64871;-73
2022/04/25 05:27:44;;;;;;;;;;;;;;;19.91;73.68;96193.62;582152;243;63963;-73
2022/04/25 05:30:12;;;;;;;;;;;;;;;19.90;73.65;96176.05;582138;243;67307;-73
2022/04/25 05:32:50;;;;;;;;;;;;;;;19.90;73.79;96187.51;582098;243;67050;-73
2022/04/25 05:35:22;;;;;;;;;;;;;;;19.90;73.71;96205.38;582218;243;65464;-73
2022/04/25 05:37:49;;;;;;;;;;;;;;;19.90;73.65;96205.38;582147;243;64815;-72
2022/04/25 05:40:18;;;;;;;;;;;;;;;19.89;73.66;96211.80;582170;243;64802;-72
2022/04/25 05:42:46;;;;;;;;;;;;;;;19.89;73.69;96215.27;582206;243;63007;-72
2022/04/25 05:45:15;;;;;;;;;;;;;;;19.89;73.62;96217.92;582023;243;64863;-72
2022/04/25 05:47:47;;;;;;;;;;;;;;;19.89;73.69;96219.80;582125;243;66979;-72
2022/04/25 05:52:59;;;;;;;;;;;;;;;19.88;73.86;96199.53;582213;243;67175;-73
2022/04/25 05:55:28;;;;;;;;;;;;;;;19.88;74.01;96215.53;582065;243;64826;-73
2022/04/25 05:57:56;;;;;;;;;;;;;;;19.88;73.82;96232.32;582134;243;65553;-70
2022/04/25 06:00:24;;;;;;;;;;;;;;;19.89;73.55;96233.14;581665;243;64867;-74
2022/04/25 06:02:51;;;;;;;;;;;;;;;19.88;73.50;96231.53;582141;243;65153;-71
2022/04/25 06:05:19;;;;;;;;;;;;;;;19.89;73.50;96233.14;582191;243;63038;-73
2022/04/25 06:07:47;;;;;;;;;;;;;;;19.88;73.98;96221.66;581981;243;67177;-73
2022/04/25 06:10:16;;;;;;;;;;;;;;;19.87;73.13;96219.28;581935;243;66718;-73
2022/04/25 06:12:48;;;;;;;;;;;;;;;19.87;74.86;96229.95;582037;243;66319;-72
2022/04/25 06:15:21;;;;;;;;;;;;;;;19.87;74.37;96229.95;582114;243;65919;-72
2022/04/25 06:17:48;;;;;;;;;;;;;;;19.87;74.56;96225.41;582143;243;67076;-73
2022/04/25 06:20:15;;;;;;;;;;;;;;;19.87;74.24;96225.41;582450;243;65366;-70
2022/04/25 06:22:44;;;;;;;;;;;;;;;19.88;74.43;96221.66;582383;243;67249;-71
2022/04/25 06:25:12;;;;;;;;;;;;;;;19.88;74.28;96218.20;582300;243;66889;-71
2022/04/25 06:27:39;;;;;;;;;;;;;;;19.87;74.37;96212.08;582388;243;63060;-70
2022/04/25 06:30:07;;;;;;;;;;;;;;;19.89;74.36;96206.47;582368;241;67091;-70
2022/04/25 06:32:36;;;;;;;;;;;;;;;19.89;74.61;96209.14;582749;242;66910;-71
2022/04/25 06:35:04;;;;;;;;;;;;;;;19.89;74.47;96207.27;584976;242;62966;-71
2022/04/25 06:37:31;;;;;;;;;;;;;;;19.89;74.32;96201.14;584911;242;64125;-73
2022/04/25 06:39:59;;;;;;;;;;;;;;;19.89;74.54;96207.27;584974;242;64384;-73
2022/04/25 06:42:26;;;;;;;;;;;;;;;19.90;74.35;96202.72;584911;242;62965;-73
2022/04/25 06:44:55;;;;;;;;;;;;;;;19.89;74.46;96201.93;584974;242;65852;-73
2022/04/25 06:47:22;;;;;;;;;;;;;;;19.90;74.48;96189.38;584937;242;66702;-76
2022/04/25 06:49:51;;;;;;;;;;;;;;;19.90;74.36;96189.38;584912;242;63036;-72
2022/04/25 06:52:20;;;;;;;;;;;;;;;19.90;74.43;96192.05;584912;242;66751;-73
2022/04/25 06:54:48;;;;;;;;;;;;;;;19.89;74.45;96190.48;584946;242;64405;-73
2022/04/25 06:57:15;;;;;;;;;;;;;;;19.91;74.13;96190.96;584896;240;63142;-72
2022/04/25 06:59:44;;;;;;;;;;;;;;;19.91;74.25;96196.30;584911;242;65015;-72
2022/04/25 07:02:12;;;;;;;;;;;;;;;19.91;74.25;96191.75;584922;242;66917;-72
2022/04/25 07:04:39;;;;;;;;;;;;;;;19.91;74.54;96183.75;584875;242;65624;-71
2022/04/25 07:07:07;;;;;;;;;;;;;;;19.92;74.37;96189.91;584954;242;66918;-72
2022/04/25 07:09:35;;;;;;;;;;;;;;;19.91;74.46;96181.09;584898;242;67034;-70
2022/04/25 07:12:03;;;;;;;;;;;;;;;19.93;74.43;96180.81;584937;242;63069;-71
2022/04/25 07:14:33;;;;;;;;;;;;;;;19.92;74.31;96181.91;584906;242;64805;-71
2022/04/25 07:17:02;;;;;;;;;;;;;;;19.91;74.18;96178.42;584909;242;65685;-70
2022/04/25 07:19:28;;;;;;;;;;;;;;;19.93;74.14;96178.14;584823;242;65299;-71
2022/04/25 07:30:15;;;;;;;;;;;;;;;19.92;74.03;96176.57;584998;242;67135;-75
2022/04/25 07:32:42;;;;;;;;;;;;;;;19.93;74.20;96178.14;584766;242;68402;-75
2022/04/25 07:35:11;;;;;;;;;;;;;;;19.92;74.33;96179.23;585014;242;65417;-76
2022/04/25 07:37:39;;;;;;;;;;;;;;;19.92;74.11;96172.03;584945;242;64894;-76
2022/04/25 07:40:12;;;;;;;;;;;;;;;19.92;74.32;96172.03;584952;242;67040;-75
2022/04/25 07:42:38;;;;;;;;;;;;;;;19.95;74.08;96165.33;584721;242;63066;-75
2022/04/25 07:45:07;;;;;;;;;;;;;;;19.93;73.95;96160.27;584990;242;67217;-75
2022/04/25 07:47:35;;;;;;;;;;;;;;;19.94;73.66;96172.55;584840;242;66962;-75
2022/04/25 07:50:03;;;;;;;;;;;;;;;19.94;73.57;96158.39;584970;242;63054;-75
2022/04/25 07:52:30;;;;;;;;;;;;;;;19.96;73.18;96164.24;585011;242;66762;-76
2022/04/25 07:54:58;;;;;;;;;;;;;;;19.96;73.02;96161.58;584913;242;66913;-76
2022/04/25 07:57:26;;;;;;;;;;;;;;;19.96;72.80;96164.24;584948;242;65448;-76
2022/04/25 07:59:53;;;;;;;;;;;;;;;19.96;72.71;96153.58;584934;242;67322;-74
2022/04/25 08:02:23;;;;;;;;;;;;;;;19.96;72.65;96158.91;584937;242;66876;-74
2022/04/25 08:04:50;;;;;;;;;;;;;;;19.98;72.69;96156.76;584979;242;65399;-75
2022/04/25 08:07:17;;;;;;;;;;;;;;;19.96;73.38;96153.58;585010;242;67161;-77
2022/04/25 08:09:45;;;;;;;;;;;;;;;19.96;72.76;96153.58;584767;240;66943;-77
2022/04/25 08:17:59;;;;;;;;;;;;;;;19.93;72.28;96138.94;584941;242;64564;-74
2022/04/25 08:20:30;;;;;;;;;;;;;;;19.93;72.12;96138.94;584995;242;65557;-76
2022/04/25 08:22:58;;;;;;;;;;;;;;;19.94;72.27;96139.72;584903;242;67092;-74
2022/04/25 08:25:26;;;;;;;;;;;;;;;19.93;71.96;96136.27;584922;242;67383;-75
2022/04/25 08:27:53;;;;;;;;;;;;;;;19.93;72.14;96135.48;584944;242;63039;-75
2022/04/25 08:30:21;;;;;;;;;;;;;;;19.93;72.04;96133.61;584926;242;67064;-74
2022/04/25 08:32:49;;;;;;;;;;;;;;;19.93;72.19;96122.15;584385;242;66912;-74
2022/04/25 08:35:16;;;;;;;;;;;;;;;19.93;71.91;96122.15;582588;243;65379;-74
2022/04/25 08:37:44;;;;;;;;;;;;;;;19.93;72.03;96122.15;582410;243;67285;-74
2022/04/25 08:40:11;;;;;;;;;;;;;;;19.93;71.92;96122.15;582522;243;64578;-74
2022/04/25 08:42:39;;;;;;;;;;;;;;;19.94;72.21;96123.73;582504;243;65074;-76
2022/04/25 08:45:07;;;;;;;;;;;;;;;19.94;72.68;96118.39;582490;243;64933;-75
2022/04/25 08:47:42;;;;;;;;;;;;;;;19.94;72.12;96124.55;582494;243;67222;-75
2022/04/25 08:50:09;;;;;;;;;;;;;;;19.94;72.18;96121.87;582530;242;63897;-74
2022/04/25 08:52:39;;;;;;;;;;;;;;;19.96;72.07;96116.23;582397;243;64862;-76
2022/04/25 08:55:07;;;;;;;;;;;;;;;19.94;72.27;96113.06;582452;242;64842;-75
2022/04/25 08:57:38;;;;;;;;;;;;;;;19.95;72.32;96114.66;582500;243;66330;-74
2022/04/25 09:00:07;;;;;;;;;;;;;;;19.96;72.33;96109.03;582444;243;67121;-72
2022/04/25 09:02:39;;;;;;;;;;;;;;;19.94;72.41;96103.21;582502;243;67181;-72
2022/04/25 09:05:07;;;;;;;;;;;;;;;19.95;72.66;96096.00;582394;243;66160;-71
2022/04/25 09:07:37;;;;;;;;;;;;;;;19.96;72.64;96092.23;582451;243;66702;-71
2022/04/25 09:10:08;;;;;;;;;;;;;;;19.96;72.76;96092.23;582467;243;64857;-72
2022/04/25 09:12:34;;;;;;;;;;;;;;;19.96;70.83;96094.91;582400;242;63223;-71
2022/04/25 09:15:02;;;;;;;;;;;;;;;19.98;70.28;96090.09;582438;243;66248;-71
2022/04/25 09:17:30;;;;;;;;;;;;;;;19.97;72.19;96096.52;582454;243;64361;-71
2022/04/25 09:19:57;;;;;;;;;;;;;;;19.96;72.83;96086.91;582314;243;65333;-70
2022/04/25 09:22:35;;;;;;;;;;;;;;;19.98;73.14;96091.97;582031;243;67199;-70
2022/04/25 09:25:04;;;;;;;;;;;;;;;19.95;72.09;96093.33;582341;243;67159;-70
2022/04/25 09:27:32;;;;;;;;;;;;;;;19.94;72.41;96089.88;581710;243;65404;-70
2022/04/25 09:30:16;;;;;;;;;;;;;;;19.96;72.29;96089.58;582465;243;65035;-70
2022/04/25 09:32:44;;;;;;;;;;;;;;;19.96;72.00;96094.91;582813;242;64682;-71
2022/04/25 09:35:29;;;;;;;;;;;;;;;19.98;72.21;96097.30;584918;242;62977;-70
2022/04/25 09:37:58;;;;;;;;;;;;;;;19.96;71.77;96097.58;584924;242;64911;-70
2022/04/25 09:40:31;;;;;;;;;;;;;;;19.97;71.99;96091.18;584898;242;66921;-70
2022/04/25 09:43:18;;;;;;;;;;;;;;;19.97;72.18;96085.84;584748;242;65365;-71
2022/04/25 09:45:44;;;;;;;;;;;;;;;19.98;72.54;96090.09;584681;242;67646;-70
2022/04/25 09:48:24;;;;;;;;;;;;;;;19.96;72.50;96090.36;584934;242;64869;-70
2022/04/25 09:51:03;;;;;;;;;;;;;;;19.97;72.61;96091.18;584838;242;43549;-71
2022/04/25 09:53:41;;;;;;;;;;;;;;;19.98;73.05;96089.30;580552;242;64998;-69
2022/04/25 09:56:16;;;;;;;;;;;;;;;19.96;72.28;96084.23;584902;242;66959;-74
2022/04/25 09:58:44;;;;;;;;;;;;;;;19.95;72.08;96080.00;584938;242;65483;-73
2022/04/25 10:01:13;;;;;;;;;;;;;;;20.01;72.27;96084.18;584845;242;67055;-74
2022/04/25 10:03:41;;;;;;;;;;;;;;;19.99;72.52;96083.66;584770;242;65126;-73
2022/04/25 10:06:09;;;;;;;;;;;;;;;19.96;71.94;96084.23;584954;242;65586;-73
2022/04/25 10:08:41;;;;;;;;;;;;;;;19.94;71.52;96083.72;584960;242;46519;-73
2022/04/25 10:11:10;;;;;;;;;;;;;;;19.93;71.25;96090.94;584811;242;64863;-72
2022/04/25 10:13:38;;;;;;;;;;;;;;;19.92;71.22;96078.70;584868;240;62999;-74
2022/04/25 10:16:05;;;;;;;;;;;;;;;19.92;71.92;96081.36;584857;240;67274;-73
2022/04/25 10:18:33;;;;;;;;;;;;;;;19.94;71.91;96081.06;584985;242;67806;-71
2022/04/25 10:21:01;;;;;;;;;;;;;;;19.93;70.97;96074.94;584941;242;66470;-73
2022/04/25 10:23:28;;;;;;;;;;;;;;;19.94;72.57;96079.20;584839;242;66764;-74
2022/04/25 10:25:58;;;;;;;;;;;;;;;19.94;72.32;96081.88;584908;240;66937;-74
2022/04/25 10:28:37;;;;;;;;;;;;;;;19.96;72.16;96089.58;581841;242;65580;-73
2022/04/25 10:31:06;;;;;;;;;;;;;;;19.95;72.58;96082.66;577342;245;67195;-73
2022/04/25 10:33:39;;;;;;;;;;;;;;;19.97;72.66;96085.84;586736;237;67872;-73
2022/04/25 10:36:07;;;;;;;;;;;;;;;19.96;72.55;96084.23;587230;241;62648;-74
2022/04/25 10:38:50;;;;;;;;;;;;;;;19.96;71.88;96089.58;588786;241;64875;-74
2022/04/25 10:44:11;;;;;;;;;;;;;;;19.95;72.13;96094.12;588827;241;63377;-74
2022/04/25 10:46:57;;;;;;;;;;;;;;;19.97;72.90;96093.84;588766;241;66956;-73
2022/04/25 10:49:29;;;;;;;;;;;;;;;19.96;72.06;96093.03;588785;241;66873;-73
2022/04/25 10:51:56;;;;;;;;;;;;;;;19.96;71.75;96094.91;588854;241;65440;-75
2022/04/25 10:54:27;;;;;;;;;;;;;;;19.96;71.80;96101.03;588804;241;66756;-73
2022/04/25 10:57:07;;;;;;;;;;;;;;;19.97;71.80;96096.52;588765;241;66669;-74
2022/04/25 10:59:34;;;;;;;;;;;;;;;19.96;71.97;96095.70;587698;241;65487;-74
2022/04/25 11:02:03;;;;;;;;;;;;;;;19.96;72.00;96092.23;585174;241;65614;-74
2022/04/25 11:04:31;;;;;;;;;;;;;;;19.97;72.05;96099.18;584946;241;66723;-75
2022/04/25 11:07:16;;;;;;;;;;;;;;;19.96;72.02;96094.91;583588;241;65215;-74
2022/04/25 11:09:44;;;;;;;;;;;;;;;19.97;72.18;96096.52;584856;241;66855;-75
2022/04/25 11:12:11;;;;;;;;;;;;;;;19.96;72.21;96092.23;582194;243;64402;-75
2022/04/25 11:14:40;;;;;;;;;;;;;;;19.97;72.30;96099.18;582124;243;63171;-74
2022/04/25 11:17:15;;;;;;;;;;;;;;;19.98;72.42;96100.75;581805;241;67143;-76
2022/04/25 11:19:51;;;;;;;;;;;;;;;19.98;73.19;96099.97;582094;243;67380;-73
2022/04/25 11:22:38;;;;;;;;;;;;;;;19.99;73.87;96096.21;582209;243;65088;-74
2022/04/25 11:25:24;;;;;;;;;;;;;;;19.98;74.32;96103.42;582241;243;67106;-75
2022/04/25 11:28:01;;;;;;;;;;;;;;;19.97;73.98;96101.84;582156;243;66996;-74
2022/04/25 11:30:29;;;;;;;;;;;;;;;19.96;74.03;96097.58;582198;243;63477;-76
2022/04/25 11:33:06;;;;;;;;;;;;;;;19.96;74.30;96100.24;584451;240;67176;-77
2022/04/25 11:35:34;;;;;;;;;;;;;;;19.94;74.50;96103.21;591347;240;67873;-76
2022/04/25 11:38:02;;;;;;;;;;;;;;;19.96;74.49;96110.91;591438;240;63026;-75
2022/04/25 11:40:29;;;;;;;;;;;;;;;19.95;74.59;96109.33;591444;240;66930;-76
2022/04/25 11:42:59;;;;;;;;;;;;;;;19.95;74.71;96109.33;591413;240;66748;-74
2022/04/25 11:45:30;;;;;;;;;;;;;;;19.98;72.38;96115.97;591392;240;65494;-76
2022/04/25 11:47:59;;;;;;;;;;;;;;;20.05;69.94;96113.73;591458;240;67381;-76
2022/04/25 11:50:28;;;;;;;;;;;;;;;20.04;72.79;96102.27;591396;240;67076;-76
2022/04/25 11:52:56;;;;;;;;;;;;;;;19.98;73.13;96098.09;591414;240;64327;-72
2022/04/25 11:55:36;;;;;;;;;;;;;;;19.96;72.89;96094.91;591493;240;64861;-73
2022/04/25 11:58:04;;;;;;;;;;;;;;;19.96;73.84;96100.24;591414;240;66920;-72
2022/04/25 12:00:34;;;;;;;;;;;;;;;19.95;73.25;96098.66;591412;240;65457;-75
2022/04/25 12:03:01;;;;;;;;;;;;;;;19.95;73.70;96098.66;591399;240;68210;-75
2022/04/25 12:05:31;;;;;;;;;;;;;;;19.97;74.30;96096.52;593059;237;66872;-75
2022/04/25 12:16:15;;;;;;;;;;;;;;;19.97;75.74;96080.52;599087;237;63103;-74
2022/04/25 12:18:50;;;;;;;;;;;;;;;19.98;75.38;96081.30;598927;237;67070;-73
2022/04/25 12:21:18;;;;;;;;;;;;;;;19.98;75.35;96082.09;599046;237;67087;-76
2022/04/25 12:23:49;;;;;;;;;;;;;;;19.97;75.24;96077.84;598955;237;65395;-74
2022/04/25 12:26:21;;;;;;;;;;;;;;;19.98;75.50;96086.64;598965;237;67239;-75
2022/04/25 12:28:51;;;;;;;;;;;;;;;19.98;75.59;96086.64;598999;237;66813;-75
2022/04/25 12:31:19;;;;;;;;;;;;;;;19.97;75.90;96080.52;598958;237;66275;-75
2022/04/25 12:33:48;;;;;;;;;;;;;;;19.96;75.25;96082.36;598101;237;65071;-75
2022/04/25 12:36:20;;;;;;;;;;;;;;;19.96;75.73;96074.36;597471;237;67212;-74
2022/04/25 12:38:52;;;;;;;;;;;;;;;19.98;76.02;96081.30;597641;237;65360;-75
2022/04/25 12:41:21;;;;;;;;;;;;;;;19.98;76.07;96078.63;597792;237;67150;-75
2022/04/25 12:43:50;;;;;;;;;;;;;;;19.96;75.97;96078.91;597620;237;66918;-75
2022/04/25 12:46:19;;;;;;;;;;;;;;;19.96;75.90;96074.36;597665;237;65448;-75
2022/04/25 12:48:59;;;;;;;;;;;;;;;19.98;76.16;96078.63;596993;237;67092;-75
2022/04/25 12:51:31;;;;;;;;;;;;;;;19.96;76.12;96077.03;597698;237;66896;-75
2022/04/25 12:53:59;;;;;;;;;;;;;;;19.98;76.08;96078.63;597652;237;63059;-75
2022/04/25 12:56:27;;;;;;;;;;;;;;;19.96;76.20;96085.03;597731;237;66742;-75
2022/04/25 12:58:56;;;;;;;;;;;;;;;19.97;75.93;96083.18;597711;237;67051;-73
2022/04/25 13:01:37;;;;;;;;;;;;;;;19.96;76.24;96085.03;597661;237;63059;-74
2022/04/25 13:04:06;;;;;;;;;;;;;;;19.96;75.83;96079.69;597718;237;67261;-73
2022/04/25 13:06:35;;;;;;;;;;;;;;;19.97;76.29;96080.52;597771;237;66870;-74
2022/04/25 13:09:03;;;;;;;;;;;;;;;19.96;76.13;96089.58;597585;236;65396;-73
2022/04/25 13:11:31;;;;;;;;;;;;;;;19.96;76.09;96097.58;597768;237;66949;-73
2022/04/25 13:14:00;;;;;;;;;;;;;;;19.96;76.13;96100.24;597696;237;66881;-73
2022/04/25 13:16:28;;;;;;;;;;;;;;;19.97;76.44;96112.52;597677;235;63137;-73
2022/04/25 13:18:56;;;;;;;;;;;;;;;19.94;75.75;96116.55;597676;237;67430;-73
2022/04/25 13:21:24;;;;;;;;;;;;;;;19.98;76.08;96113.30;597636;237;66894;-73
2022/04/25 13:23:51;;;;;;;;;;;;;;;19.96;75.94;96117.03;597638;237;65360;-73
2022/04/25 13:26:19;;;;;;;;;;;;;;;19.96;75.83;96116.23;597660;237;67068;-70
2022/04/25 13:28:49;;;;;;;;;;;;;;;19.95;75.60;96112.00;597650;237;67198;-73
2022/04/25 13:31:17;;;;;;;;;;;;;;;19.96;75.64;96121.58;593798;237;65390;-73
2022/04/25 13:33:44;;;;;;;;;;;;;;;19.96;76.24;96122.36;596160;237;67125;-73